LMO weather

RAF Lossiemouth
Lossiemouth, Scotland, United Kingdom

Public forecast

Using degrees Celsius for public forecast. Weather courtesy of forecast.io.

Current aviation weather report (METAR) for RAF Lossiemouth

Retrieved 2020/05/26 20:50 UTC (17 minutes ago):

EGQS 262050Z 27007KT CAVOK 12/05 Q1036 BLU RMK BLU

Aviation forecast (TAF) for RAF Lossiemouth

Retrieved 2020/05/26 21:36 UTC (0 seconds ago):

TAF TAF EGQS 261921Z 2621/2715 25010KT 9999 FEW040